<-- eyeonlakeo.com   Last Update             ---------------- Click for other years ----------------
  1/16/2021 9:59 AM             2021 2020 2019 2018 2017 2016
 
                               
Lake and C-44 Basin Discharges
1/1/2020 to 12/31/2020
                         
                                 
                                 
                                 
                                 
                                 
                                 
                                 
                                 
                                 
                                 
                                 
                                 
                                 
                                 
                                 
                                 
                                 
                                 
                                 
                                 
                                 
                                 
                                 
                                 
                                 
                                 
                                 
                                 
                                 
                                 
                                 
                                 
                                 
                                 
                                 
                                 
                                 
                                 
                                 
                                 
                                 
                                 
                                 
                                 
                                 
                                 
                                 
  Cubic Feet Per Second (cfs) Acre-Feet (ft) (ft) (in)
  S80_S S308_S
Daily
S308_S to C-44 S308_S to Lake Basin Flow
 [S-80] - [S-308 to C-44]
Lake Flow
 [S-80] - Basin Flow
S80_S S308_S
Daily
S308_S to C-44 S308_S to Lake Basin Flow
 [S-80] - [S-308 to C-44]
Lake Flow
 [S-80] - Basin Flow
 S-308
Cumulative
Lake Stage
N3466
Mean C-44 Stage at S-80H Rain at C44B5A_R
Date DJ238 DJ239         DJ238 DJ239                
1/1/2020 0.00 -205.00 0.00 205.00 0.00 0.00 0.00 -406.61 0.00 406.61 0.00 0.00 -406.61 13.15 13.29 0.00
1/2/2020 0.00 31.00 31.00 0.00 0.00 0.00 0.00 61.49 61.49 0.00 0.00 0.00 -345.12 13.16 13.21 0.00
1/3/2020 0.00 177.00 177.00 0.00 0.00 0.00 0.00 351.08 351.08 0.00 0.00 0.00 5.95 13.17 13.24 0.00
1/4/2020 0.00 -420.00 0.00 420.00 0.00 0.00 0.00 -833.06 0.00 833.06 0.00 0.00 -827.11 13.15 13.52 0.02
1/5/2020 0.00 391.00 391.00 0.00 0.00 0.00 0.00 775.54 775.54 0.00 0.00 0.00 -51.57 13.10 13.15 0.00
1/6/2020 0.00 530.00 530.00 0.00 0.00 0.00 0.00 1,051.24 1,051.24 0.00 0.00 0.00 999.67 13.11 13.13 0.00
1/7/2020 0.00 429.00 429.00 0.00 0.00 0.00 0.00 850.91 850.91 0.00 0.00 0.00 1,850.58 13.09 13.19 0.00
1/8/2020 0.00 746.00 746.00 0.00 0.00 0.00 0.00 1,479.67 1,479.67 0.00 0.00 0.00 3,330.26 13.06 13.03 0.00
1/9/2020 0.00 946.00 946.00 0.00 0.00 0.00 0.00 1,876.37 1,876.37 0.00 0.00 0.00 5,206.62 13.08 12.80 0.00
1/10/2020 0.00 472.00 472.00 0.00 0.00 0.00 0.00 936.20 936.20 0.00 0.00 0.00 6,142.82 13.07 12.85 0.00
1/11/2020 0.00 413.00 413.00 0.00 0.00 0.00 0.00 819.18 819.18 0.00 0.00 0.00 6,962.00 13.07 13.00 0.02
1/12/2020 0.00 339.00 339.00 0.00 0.00 0.00 0.00 672.40 672.40 0.00 0.00 0.00 7,634.40 13.07 13.03 0.01
1/13/2020 0.00 698.00 698.00 0.00 0.00 0.00 0.00 1,384.47 1,384.47 0.00 0.00 0.00 9,018.86 13.06 13.00 0.00
1/14/2020 0.00 644.00 644.00 0.00 0.00 0.00 0.00 1,277.36 1,277.36 0.00 0.00 0.00 10,296.22 13.05 13.05 0.07
1/15/2020 0.00 666.00 666.00 0.00 0.00 0.00 0.00 1,320.99 1,320.99 0.00 0.00 0.00 11,617.22 13.04 13.04 0.00
1/16/2020 0.00 589.00 589.00 0.00 0.00 0.00 0.00 1,168.27 1,168.27 0.00 0.00 0.00 12,785.48 13.02 13.05 0.00
1/17/2020 0.00 1,410.00 1,410.00 0.00 0.00 0.00 0.00 2,796.70 2,796.70 0.00 0.00 0.00 15,582.18 13.02 12.66 0.00
1/18/2020 0.00 338.00 338.00 0.00 0.00 0.00 0.00 670.41 670.41 0.00 0.00 0.00 16,252.60 12.99 12.83 0.00
1/19/2020 0.00 -484.00 0.00 484.00 0.00 0.00 0.00 -960.00 0.00 960.00 0.00 0.00 15,292.60 12.97 13.04 0.00
1/20/2020 0.00 362.00 362.00 0.00 0.00 0.00 0.00 718.02 718.02 0.00 0.00 0.00 16,010.62 12.91 12.91 0.00
1/21/2020 0.00 439.00 439.00 0.00 0.00 0.00 0.00 870.75 870.75 0.00 0.00 0.00 16,881.36 12.80 12.99 0.00
1/22/2020 0.00 -887.00 0.00 887.00 0.00 0.00 0.00 -1,759.34 0.00 1,759.34 0.00 0.00 15,122.02 12.76 13.04 0.12
1/23/2020 0.00 963.00 963.00 0.00 0.00 0.00 0.00 1,910.09 1,910.09 0.00 0.00 0.00 17,032.11 12.81 12.85 0.22
1/24/2020 0.00 943.00 943.00 0.00 0.00 0.00 0.00 1,870.42 1,870.42 0.00 0.00 0.00 18,902.52 12.82 12.85 0.11
1/25/2020 0.00 616.00 616.00 0.00 0.00 0.00 0.00 1,221.82 1,221.82 0.00 0.00 0.00 20,124.34 12.81 12.91 0.00
1/26/2020 0.00 798.00 798.00 0.00 0.00 0.00 0.00 1,582.81 1,582.81 0.00 0.00 0.00 21,707.16 12.79 12.82 0.00
1/27/2020 0.00 837.00 837.00 0.00 0.00 0.00 0.00 1,660.17 1,660.17 0.00 0.00 0.00 23,367.33 12.79 12.85 0.01
1/28/2020 0.00 1,046.00 1,046.00 0.00 0.00 0.00 0.00 2,074.72 2,074.72 0.00 0.00 0.00 25,442.04 12.78 12.72 0.00
1/29/2020 0.00 886.00 886.00 0.00 0.00 0.00 0.00 1,757.36 1,757.36 0.00 0.00 0.00 27,199.40 12.77 12.85 0.58
1/30/2020 0.00 240.00 240.00 0.00 0.00 0.00 0.00 476.03 476.03 0.00 0.00 0.00 27,675.44 12.83 12.92 0.00
1/31/2020 0.00 558.00 558.00 0.00 0.00 0.00 0.00 1,106.78 1,106.78 0.00 0.00 0.00 28,782.21 12.84 12.91 0.08
2/1/2020 0.00 -335.00 0.00 335.00 0.00 0.00 0.00 -664.46 0.00 664.46 0.00 0.00 28,117.75 12.87 13.10 0.54
2/2/2020 0.00 148.00 148.00 0.00 0.00 0.00 0.00 293.55 293.55 0.00 0.00 0.00 28,411.30 12.86 13.06 0.00
2/3/2020 0.00 936.00 936.00 0.00 0.00 0.00 0.00 1,856.53 1,856.53 0.00 0.00 0.00 30,267.84 12.90 12.92 0.00
2/4/2020 0.00 924.00 924.00 0.00 0.00 0.00 0.00 1,832.73 1,832.73 0.00 0.00 0.00 32,100.57 12.90 12.93 0.00
2/5/2020 0.00 946.00 946.00 0.00 0.00 0.00 0.00 1,876.37 1,876.37 0.00 0.00 0.00 33,976.94 12.91 12.90 0.00
2/6/2020 0.00 352.00 352.00 0.00 0.00 0.00 0.00 698.18 698.18 0.00 0.00 0.00 34,675.12 12.92 13.06 0.00
2/7/2020 0.00 150.00 150.00 0.00 0.00 0.00 0.00 297.52 297.52 0.00 0.00 0.00 34,972.64 12.93 13.16 0.47
2/8/2020 0.00 670.00 670.00 0.00 0.00 0.00 0.00 1,328.93 1,328.93 0.00 0.00 0.00 36,301.57 12.92 12.89 0.00
2/9/2020 0.00 951.00 951.00 0.00 0.00 0.00 0.00 1,886.29 1,886.29 0.00 0.00 0.00 38,187.86 12.94 12.75 0.00
2/10/2020 0.00 244.00 244.00 0.00 0.00 0.00 0.00 483.97 483.97 0.00 0.00 0.00 38,671.82 12.94 12.87 0.00
2/11/2020 0.00 480.00 480.00 0.00 0.00 0.00 0.00 952.07 952.07 0.00 0.00 0.00 39,623.89 12.94 12.94 0.00
2/12/2020 0.00 695.00 695.00 0.00 0.00 0.00 0.00 1,378.52 1,378.52 0.00 0.00 0.00 41,002.41 12.94 12.94 0.00
2/13/2020 0.00 338.00 338.00 0.00 0.00 0.00 0.00 670.41 670.41 0.00 0.00 0.00 41,672.82 12.93 12.94 0.33
2/14/2020 0.00 665.00 665.00 0.00 0.00 0.00 0.00 1,319.01 1,319.01 0.00 0.00 0.00 42,991.83 12.92 13.03 0.02
2/15/2020 0.00 578.00 578.00 0.00 0.00 0.00 0.00 1,146.45 1,146.45 0.00 0.00 0.00 44,138.28 12.90 13.03 0.02
2/16/2020 0.00 267.00 267.00 0.00 0.00 0.00 0.00 529.59 529.59 0.00 0.00 0.00 44,667.87 12.91 13.03 0.08
2/17/2020 0.00 386.00 386.00 0.00 0.00 0.00 0.00 765.62 765.62 0.00 0.00 0.00 45,433.49 12.92 13.03 0.00
2/18/2020 0.00 450.00 450.00 0.00 0.00 0.00 0.00 892.56 892.56 0.00 0.00 0.00 46,326.06 12.91 12.88 0.00
2/19/2020 0.00 314.00 314.00 0.00 0.00 0.00 0.00 622.81 622.81 0.00 0.00 0.00 46,948.87 12.90 12.89 0.00
2/20/2020 0.00 181.00 181.00 0.00 0.00 0.00 0.00 359.01 359.01 0.00 0.00 0.00 47,307.88 12.88 13.02 0.00
2/21/2020 0.00 504.00 504.00 0.00 0.00 0.00 0.00 999.67 999.67 0.00 0.00 0.00 48,307.55 12.78 12.80 0.04
2/22/2020 0.00 637.00 637.00 0.00 0.00 0.00 0.00 1,263.47 1,263.47 0.00 0.00 0.00 49,571.02 12.75 12.64 0.04
2/23/2020 0.00 511.00 511.00 0.00 0.00 0.00 0.00 1,013.56 1,013.56 0.00 0.00 0.00 50,584.58 12.78 12.67 0.03
2/24/2020 0.00 474.00 474.00 0.00 0.00 0.00 0.00 940.17 940.17 0.00 0.00 0.00 51,524.75 12.77 12.73 0.00
2/25/2020 0.00 424.00 424.00 0.00 0.00 0.00 0.00 840.99 840.99 0.00 0.00 0.00 52,365.74 12.75 12.81 0.00
2/26/2020 0.00 271.00 271.00 0.00 0.00 0.00 0.00 537.52 537.52 0.00 0.00 0.00 52,903.26 12.75 12.89 0.11
2/27/2020 0.00 390.00 390.00 0.00 0.00 0.00 0.00 773.56 773.56 0.00 0.00 0.00 53,676.82 12.70 12.89 0.00
2/28/2020 0.00 556.00 556.00 0.00 0.00 0.00 0.00 1,102.81 1,102.81 0.00 0.00 0.00 54,779.63 12.67 12.87 0.00
2/29/2020 0.00 523.00 523.00 0.00 0.00 0.00 0.00 1,037.36 1,037.36 0.00 0.00 0.00 55,816.99 12.64 12.76 0.00
3/1/2020 0.00 710.00 710.00 0.00 0.00 0.00 0.00 1,408.27 1,408.27 0.00 0.00 0.00 57,225.26 12.62 12.57 0.00
3/2/2020 0.00 594.00 594.00 0.00 0.00 0.00 0.00 1,178.18 1,178.18 0.00 0.00 0.00 58,403.44 12.62 12.60 0.00
3/3/2020 0.00 419.00 419.00 0.00 0.00 0.00 0.00 831.08 831.08 0.00 0.00 0.00 59,234.52 12.60 12.63 0.00
3/4/2020 0.00 563.00 563.00 0.00 0.00 0.00 0.00 1,116.70 1,116.70 0.00 0.00 0.00 60,351.21 12.59 12.62 0.00
3/5/2020 0.00 218.00 218.00 0.00 0.00 0.00 0.00 432.40 432.40 0.00 0.00 0.00 60,783.61 12.57 12.72 0.00
3/6/2020 0.00 372.00 372.00 0.00 0.00 0.00 0.00 737.85 737.85 0.00 0.00 0.00 61,521.46 12.53 12.59 0.00
3/7/2020 0.00 485.00 485.00 0.00 0.00 0.00 0.00 961.99 961.99 0.00 0.00 0.00 62,483.45 12.44 12.30 0.00
3/8/2020 0.00 622.00 622.00 0.00 0.00 0.00 0.00 1,233.72 1,233.72 0.00 0.00 0.00 63,717.17 12.46 12.18 0.00
3/9/2020 0.00 514.00 514.00 0.00 0.00 0.00 0.00 1,019.51 1,019.51 0.00 0.00 0.00 64,736.68 12.45 12.12 0.00
3/10/2020 0.00 92.00 92.00 0.00 0.00 0.00 0.00 182.48 182.48 0.00 0.00 0.00 64,919.16 12.42 12.32 0.00
3/11/2020 0.00 340.00 340.00 0.00 0.00 0.00 0.00 674.38 674.38 0.00 0.00 0.00 65,593.54 12.42 12.37 0.00
3/12/2020 0.00 456.00 456.00 0.00 0.00 0.00 0.00 904.46 904.46 0.00 0.00 0.00 66,498.00 12.41 12.37 0.00
3/13/2020 0.00 284.00 284.00 0.00 0.00 0.00 0.00 563.31 563.31 0.00 0.00 0.00 67,061.31 12.40 12.32 0.00
3/14/2020 0.00 389.00 389.00 0.00 0.00 0.00 0.00 771.57 771.57 0.00 0.00 0.00 67,832.88 12.38 12.29 0.00
3/15/2020 0.00 192.00 192.00 0.00 0.00 0.00 0.00 380.83 380.83 0.00 0.00 0.00 68,213.71 12.36 12.32 0.00
3/16/2020 0.00 548.00 548.00 0.00 0.00 0.00 0.00 1,086.94 1,086.94 0.00 0.00 0.00 69,300.65 12.35 12.24 0.00
3/17/2020 0.00 400.00 400.00 0.00 0.00 0.00 0.00 793.39 793.39 0.00 0.00 0.00 70,094.05 12.33 12.20 0.00
3/18/2020 0.00 469.00 469.00 0.00 0.00 0.00 0.00 930.25 930.25 0.00 0.00 0.00 71,024.30 12.30 12.16 0.00
3/19/2020 0.00 374.00 374.00 0.00 0.00 0.00 0.00 741.82 741.82 0.00 0.00 0.00 71,766.12 12.29 12.11 0.00
3/20/2020 0.00 209.00 209.00 0.00 0.00 0.00 0.00 414.55 414.55 0.00 0.00 0.00 72,180.66 12.26 12.11 0.00
3/21/2020 0.00 -84.00 0.00 84.00 0.00 0.00 0.00 -166.61 0.00 166.61 0.00 0.00 72,014.05 12.22 12.14 0.00
3/22/2020 0.00 -235.00 0.00 235.00 0.00 0.00 0.00 -466.12 0.00 466.12 0.00 0.00 71,547.93 12.19 12.14 0.00
3/23/2020 0.00 -638.00 0.00 638.00 0.00 0.00 0.00 -1,265.46 0.00 1,265.46 0.00 0.00 70,282.48 12.17 12.13 0.00
3/24/2020 0.00 -470.00 0.00 470.00 0.00 0.00 0.00 -932.23 0.00 932.23 0.00 0.00 69,350.24 12.12 12.17 0.00
3/25/2020 0.00 -578.00 0.00 578.00 0.00 0.00 0.00 -1,146.45 0.00 1,146.45 0.00 0.00 68,203.79 12.08 12.28 0.00
3/26/2020 0.00 -751.00 0.00 751.00 0.00 0.00 0.00 -1,489.59 0.00 1,489.59 0.00 0.00 66,714.20 12.05 12.02 0.00
3/27/2020 0.00 -493.00 0.00 493.00 0.00 0.00 0.00 -977.85 0.00 977.85 0.00 0.00 65,736.35 12.04 11.92 0.00
3/28/2020 0.00 -511.00 0.00 511.00 0.00 0.00 0.00 -1,013.56 0.00 1,013.56 0.00 0.00 64,722.79 12.00 11.92 0.00
3/29/2020 0.00 -446.00 0.00 446.00 0.00 0.00 0.00 -884.63 0.00 884.63 0.00 0.00 63,838.16 11.95 11.94 0.00
3/30/2020 0.00 -398.00 0.00 398.00 0.00 0.00 0.00 -789.42 0.00 789.42 0.00 0.00 63,048.74 11.91 11.90 0.00
3/31/2020 0.00 -280.00 0.00 280.00 0.00 0.00 0.00 -555.37 0.00 555.37 0.00 0.00 62,493.37 11.86 12.19 0.00
4/1/2020 0.00 -878.00 0.00 878.00 0.00 0.00 0.00 -1,741.49 0.00 1,741.49 0.00 0.00 60,751.88 11.82 11.90 0.12
4/2/2020 0.00 -475.00 0.00 475.00 0.00 0.00 0.00 -942.15 0.00 942.15 0.00 0.00 59,809.72 11.79 11.72 0.00
4/3/2020 0.00 -535.00 0.00 535.00 0.00 0.00 0.00 -1,061.16 0.00 1,061.16 0.00 0.00 58,748.56 11.75 11.68 0.00
4/4/2020 0.00 270.00 270.00 0.00 0.00 0.00 0.00 535.54 535.54 0.00 0.00 0.00 59,284.10 11.71 11.73 0.00
4/5/2020 0.00 -254.00 0.00 254.00 0.00 0.00 0.00 -503.80 0.00 503.80 0.00 0.00 58,780.30 11.67 11.58 0.10
4/6/2020 0.00 64.00 64.00 0.00 0.00 0.00 0.00 126.94 126.94 0.00 0.00 0.00 58,907.24 11.66 11.49 0.28
4/7/2020 0.00 -190.00 0.00 190.00 0.00 0.00 0.00 -376.86 0.00 376.86 0.00 0.00 58,530.38 11.62 11.54 0.00
4/8/2020 0.00 -31.00 0.00 31.00 0.00 0.00 0.00 -61.49 0.00 61.49 0.00 0.00 58,468.89 11.59 11.73 0.00
4/9/2020 0.00 177.00 177.00 0.00 0.00 0.00 0.00 351.08 351.08 0.00 0.00 0.00 58,819.97 11.53 11.84 0.00
4/10/2020 0.00 -153.00 0.00 153.00 0.00 0.00 0.00 -303.47 0.00 303.47 0.00 0.00 58,516.50 11.52 11.63 0.31
4/11/2020 0.00 -34.00 0.00 34.00 0.00 0.00 0.00 -67.44 0.00 67.44 0.00 0.00 58,449.06 11.50 11.31 0.00
4/12/2020 0.00 255.00 255.00 0.00 0.00 0.00 0.00 505.79 505.79 0.00 0.00 0.00 58,954.85 11.50 11.30 0.00
4/13/2020 0.00 518.00 518.00 0.00 0.00 0.00 0.00 1,027.44 1,027.44 0.00 0.00 0.00 59,982.29 11.44 11.53 0.00
4/14/2020 0.00 347.00 347.00 0.00 0.00 0.00 0.00 688.27 688.27 0.00 0.00 0.00 60,670.55 11.42 11.44 0.00
4/15/2020 0.00 349.00 349.00 0.00 0.00 0.00 0.00 692.23 692.23 0.00 0.00 0.00 61,362.79 11.40 11.55 0.00
4/16/2020 0.00 323.00 323.00 0.00 0.00 0.00 0.00 640.66 640.66 0.00 0.00 0.00 62,003.45 11.36 11.19 0.41
4/17/2020 0.00 207.00 207.00 0.00 0.00 0.00 0.00 410.58 410.58 0.00 0.00 0.00 62,414.03 11.36 11.23 0.70
4/18/2020 0.00 -222.00 0.00 222.00 0.00 0.00 0.00 -440.33 0.00 440.33 0.00 0.00 61,973.70 11.39 11.59 0.02
4/19/2020 0.00 -323.00 0.00 323.00 0.00 0.00 0.00 -640.66 0.00 640.66 0.00 0.00 61,333.03 11.40 11.52 0.54
4/20/2020 0.00 -817.00 0.00 817.00 0.00 0.00 0.00 -1,620.50 0.00 1,620.50 0.00 0.00 59,712.53 11.38 11.86 0.87
4/21/2020 0.00 -1,205.00 0.00 1,205.00 0.00 0.00 0.00 -2,390.09 0.00 2,390.09 0.00 0.00 57,322.45 11.38 11.57 0.00
4/22/2020 0.00 -648.00 0.00 648.00 0.00 0.00 0.00 -1,285.29 0.00 1,285.29 0.00 0.00 56,037.15 11.36 11.31 0.00
4/23/2020 0.00 -112.00 0.00 112.00 0.00 0.00 0.00 -222.15 0.00 222.15 0.00 0.00 55,815.00 11.38 11.31 0.00
4/24/2020 0.00 -83.00 0.00 83.00 0.00 0.00 0.00 -164.63 0.00 164.63 0.00 0.00 55,650.38 11.32 11.44 0.12
4/25/2020 0.00 -477.00 0.00 477.00 0.00 0.00 0.00 -946.12 0.00 946.12 0.00 0.00 54,704.26 11.37 11.46 0.44
4/26/2020 0.00 -383.00 0.00 383.00 0.00 0.00 0.00 -759.67 0.00 759.67 0.00 0.00 53,944.59 11.43 11.63 0.30
4/27/2020 0.00 -824.00 0.00 824.00 0.00 0.00 0.00 -1,634.38 0.00 1,634.38 0.00 0.00 52,310.20 11.45 11.42 0.01
4/28/2020 0.00 -321.00 0.00 321.00 0.00 0.00 0.00 -636.70 0.00 636.70 0.00 0.00 51,673.51 11.45 11.29 0.00
4/29/2020 0.00 -45.00 0.00 45.00 0.00 0.00 0.00 -89.26 0.00 89.26 0.00 0.00 51,584.25 11.44 11.34 0.00
4/30/2020 0.00 -22.00 0.00 22.00 0.00 0.00 0.00 -43.64 0.00 43.64 0.00 0.00 51,540.61 11.42 11.64 0.64
5/1/2020 0.00 -696.00 0.00 696.00 0.00 0.00 0.00 -1,380.50 0.00 1,380.50 0.00 0.00 50,160.12 11.41 11.48 0.00
5/2/2020 0.00 -572.00 0.00 572.00 0.00 0.00 0.00 -1,134.55 0.00 1,134.55 0.00 0.00 49,025.57 11.40 11.36 0.00
5/3/2020 0.00 -881.00 0.00 881.00 0.00 0.00 0.00 -1,747.44 0.00 1,747.44 0.00 0.00 47,278.13 11.39 11.34 0.00
5/4/2020 0.00 -337.00 0.00 337.00 0.00 0.00 0.00 -668.43 0.00 668.43 0.00 0.00 46,609.69 11.37 11.38 0.00
5/5/2020 0.00 46.00 46.00 0.00 0.00 0.00 0.00 91.24 91.24 0.00 0.00 0.00 46,700.93 11.33 11.42 0.00
5/6/2020 0.00 148.00 148.00 0.00 0.00 0.00 0.00 293.55 293.55 0.00 0.00 0.00 46,994.49 11.28 11.51 0.00
5/7/2020 0.00 -368.00 0.00 368.00 0.00 0.00 0.00 -729.92 0.00 729.92 0.00 0.00 46,264.57 11.24 11.15 0.00
5/8/2020 0.00 274.00 274.00 0.00 0.00 0.00 0.00 543.47 543.47 0.00 0.00 0.00 46,808.04 11.23 11.21 0.00
5/9/2020 0.00 -516.00 0.00 516.00 0.00 0.00 0.00 -1,023.47 0.00 1,023.47 0.00 0.00 45,784.57 11.21 11.20 0.00
5/10/2020 0.00 -764.00 0.00 764.00 0.00 0.00 0.00 -1,515.38 0.00 1,515.38 0.00 0.00 44,269.19 11.21 11.17 0.44
5/11/2020 0.00 -595.00 0.00 595.00 0.00 0.00 0.00 -1,180.17 0.00 1,180.17 0.00 0.00 43,089.02 11.18 11.06 0.00
5/12/2020 0.00 -327.00 0.00 327.00 0.00 0.00 0.00 -648.60 0.00 648.60 0.00 0.00 42,440.43 11.17 10.88 0.00
5/13/2020 0.00 -208.00 0.00 208.00 0.00 0.00 0.00 -412.56 0.00 412.56 0.00 0.00 42,027.87 11.15 10.62 0.00
5/14/2020 0.00 -58.00 0.00 58.00 0.00 0.00 0.00 -115.04 0.00 115.04 0.00 0.00 41,912.82 11.10 10.59 0.00
5/15/2020 0.00 146.00 146.00 0.00 0.00 0.00 0.00 289.59 289.59 0.00 0.00 0.00 42,202.41 11.04 10.79 0.45
5/16/2020 0.00 -458.00 0.00 458.00 0.00 0.00 0.00 -908.43 0.00 908.43 0.00 0.00 41,293.98 11.01 11.09 0.48
5/17/2020 0.00 -981.00 0.00 981.00 0.00 0.00 0.00 -1,945.79 0.00 1,945.79 0.00 0.00 39,348.19 11.00 11.09 0.01
5/18/2020 0.00 -884.00 0.00 884.00 0.00 0.00 0.00 -1,753.39 0.00 1,753.39 0.00 0.00 37,594.80 11.03 11.14 1.99
5/19/2020 0.00 -486.00 0.00 486.00 0.00 0.00 0.00 -963.97 0.00 963.97 0.00 0.00 36,630.83 11.12 11.40 0.34
5/20/2020 0.00 -968.00 0.00 968.00 0.00 0.00 0.00 -1,920.00 0.00 1,920.00 0.00 0.00 34,710.82 11.12 11.28 0.00
5/21/2020 0.00 -685.00 0.00 685.00 0.00 0.00 0.00 -1,358.68 0.00 1,358.68 0.00 0.00 33,352.14 11.12 11.21 0.02
5/22/2020 0.00 -1,027.00 0.00 1,027.00 0.00 0.00 0.00 -2,037.03 0.00 2,037.03 0.00 0.00 31,315.11 11.14 11.08 0.00
5/23/2020 0.00 -1,157.00 0.00 1,157.00 0.00 0.00 0.00 -2,294.88 0.00 2,294.88 0.00 0.00 29,020.23 11.15 10.98 0.01
5/24/2020 0.00 -983.00 0.00 983.00 0.00 0.00 0.00 -1,949.76 0.00 1,949.76 0.00 0.00 27,070.48 11.16 11.11 0.97
5/25/2020 0.00 -1,073.00 0.00 1,073.00 0.00 0.00 0.00 -2,128.27 0.00 2,128.27 0.00 0.00 24,942.21 11.27 11.37 0.28
5/26/2020 0.00 -1,250.00 0.00 1,250.00 0.00 0.00 0.00 -2,479.34 0.00 2,479.34 0.00 0.00 22,462.86 11.32 11.70 0.00
5/27/2020 0.00 -1,443.00 0.00 1,443.00 0.00 0.00 0.00 -2,862.16 0.00 2,862.16 0.00 0.00 19,600.71 11.36 11.66 0.10
5/28/2020 0.00 -715.00 0.00 715.00 0.00 0.00 0.00 -1,418.19 0.00 1,418.19 0.00 0.00 18,182.52 11.39 11.54 1.19
5/29/2020 0.00 -1,029.00 0.00 1,029.00 0.00 0.00 0.00 -2,041.00 0.00 2,041.00 0.00 0.00 16,141.52 11.42 11.61 0.01
5/30/2020 0.00 -869.00 0.00 869.00 0.00 0.00 0.00 -1,723.64 0.00 1,723.64 0.00 0.00 14,417.88 11.45 11.61 0.11
5/31/2020 0.00 -896.00 0.00 896.00 0.00 0.00 0.00 -1,777.19 0.00 1,777.19 0.00 0.00 12,640.69 11.46 11.60 0.00
6/1/2020 0.00 -854.00 0.00 854.00 0.00 0.00 0.00 -1,693.89 0.00 1,693.89 0.00 0.00 10,946.80 11.47 11.49 0.00
6/2/2020 0.00 -957.00 0.00 957.00 0.00 0.00 0.00 -1,898.19 0.00 1,898.19 0.00 0.00 9,048.62 11.49 11.55 1.06
6/3/2020 0.00 0.00 0.00 0.00 0.00 0.00 0.00 0.00 0.00 0.00 0.00 0.00 9,048.62 11.58 12.48 1.36
6/4/2020 0.00 0.00 0.00 0.00 0.00 0.00 0.00 0.00 0.00 0.00 0.00 0.00 9,048.62 11.70 12.59 0.24
6/5/2020 0.00 -2,944.00 0.00 2,944.00 0.00 0.00 0.00 -5,839.35 0.00 5,839.35 0.00 0.00 3,209.26 11.82 12.77 2.28
6/6/2020 0.00 -6,552.00 0.00 6,552.00 0.00 0.00 0.00 -12,995.73 0.00 12,995.73 0.00 0.00 -9,786.47 11.96 14.12 0.00
6/7/2020 0.00 -6,040.00 0.00 6,040.00 0.00 0.00 0.00 -11,980.19 0.00 11,980.19 0.00 0.00 -21,766.66 12.00 13.72 0.00
6/8/2020 0.00 -3,660.00 0.00 3,660.00 0.00 0.00 0.00 -7,259.52 0.00 7,259.52 0.00 0.00 -29,026.18 12.06 12.88 0.00
6/9/2020 0.00 -2,087.00 0.00 2,087.00 0.00 0.00 0.00 -4,139.51 0.00 4,139.51 0.00 0.00 -33,165.70 12.11 12.39 0.00
6/10/2020 0.00 -1,304.00 0.00 1,304.00 0.00 0.00 0.00 -2,586.45 0.00 2,586.45 0.00 0.00 -35,752.15 12.15 12.30 0.00
6/11/2020 0.00 -1,110.00 0.00 1,110.00 0.00 0.00 0.00 -2,201.66 0.00 2,201.66 0.00 0.00 -37,953.81 12.19 12.19 0.00
6/12/2020 0.00 -821.00 0.00 821.00 0.00 0.00 0.00 -1,628.43 0.00 1,628.43 0.00 0.00 -39,582.24 12.21 12.11 0.00
6/13/2020 0.00 -845.00 0.00 845.00 0.00 0.00 0.00 -1,676.04 0.00 1,676.04 0.00 0.00 -41,258.28 12.21 12.14 0.00
6/14/2020 0.00 -681.00 0.00 681.00 0.00 0.00 0.00 -1,350.75 0.00 1,350.75 0.00 0.00 -42,609.02 12.21 12.20 0.01
6/15/2020 0.00 -759.00 0.00 759.00 0.00 0.00 0.00 -1,505.46 0.00 1,505.46 0.00 0.00 -44,114.48 12.20 12.16 0.00
6/16/2020 0.00 -1,131.00 0.00 1,131.00 0.00 0.00 0.00 -2,243.31 0.00 2,243.31 0.00 0.00 -46,357.79 12.19 12.12 0.00
6/17/2020 0.00 -692.00 0.00 692.00 0.00 0.00 0.00 -1,372.57 0.00 1,372.57 0.00 0.00 -47,730.36 12.20 12.10 0.00
6/18/2020 0.00 -698.00 0.00 698.00 0.00 0.00 0.00 -1,384.47 0.00 1,384.47 0.00 0.00 -49,114.82 12.19 12.24 1.40
6/19/2020 0.00 0.00 0.00 0.00 0.00 0.00 0.00 0.00 0.00 0.00 0.00 0.00 -49,114.82 12.26 12.37 0.84
6/20/2020 0.00 0.00 0.00 0.00 0.00 0.00 0.00 0.00 0.00 0.00 0.00 0.00 -49,114.82 12.32 12.48 0.01
6/21/2020 0.00 0.00 0.00 0.00 0.00 0.00 0.00 0.00 0.00 0.00 0.00 0.00 -49,114.82 12.34 12.47 0.16
6/22/2020 0.00 0.00 0.00 0.00 0.00 0.00 0.00 0.00 0.00 0.00 0.00 0.00 -49,114.82 12.35 12.46 0.19
6/23/2020 0.00 0.00 0.00 0.00 0.00 0.00 0.00 0.00 0.00 0.00 0.00 0.00 -49,114.82 12.36 12.50 0.32
6/24/2020 0.00 4,776.00 4,776.00 0.00 0.00 0.00 0.00 9,473.08 9,473.08 0.00 0.00 0.00 -39,641.74 12.38 12.46 0.00
6/25/2020 0.00 628.00 628.00 0.00 0.00 0.00 0.00 1,245.62 1,245.62 0.00 0.00 0.00 -38,396.12 12.39 12.39 0.00
6/26/2020 0.00 797.00 797.00 0.00 0.00 0.00 0.00 1,580.83 1,580.83 0.00 0.00 0.00 -36,815.29 12.38 12.31 0.00
6/27/2020 0.00 791.00 791.00 0.00 0.00 0.00 0.00 1,568.93 1,568.93 0.00 0.00 0.00 -35,246.36 12.35 12.33 0.00
6/28/2020 0.00 744.00 744.00 0.00 0.00 0.00 0.00 1,475.71 1,475.71 0.00 0.00 0.00 -33,770.66 12.35 12.38 0.00
6/29/2020 0.00 700.00 700.00 0.00 0.00 0.00 0.00 1,388.43 1,388.43 0.00 0.00 0.00 -32,382.22 12.34 12.41 0.00
6/30/2020 0.00 620.00 620.00 0.00 0.00 0.00 0.00 1,229.75 1,229.75 0.00 0.00 0.00 -31,152.47 12.31 12.42 0.00
7/1/2020 0.00 616.00 616.00 0.00 0.00 0.00 0.00 1,221.82 1,221.82 0.00 0.00 0.00 -29,930.65 12.30 12.38 0.00
7/2/2020 0.00 562.00 562.00 0.00 0.00 0.00 0.00 1,114.71 1,114.71 0.00 0.00 0.00 -28,815.93 12.30 12.42 0.00
7/3/2020 0.00 484.00 484.00 0.00 0.00 0.00 0.00 960.00 960.00 0.00 0.00 0.00 -27,855.93 12.28 12.43 0.00
7/4/2020 0.00 476.00 476.00 0.00 0.00 0.00 0.00 944.13 944.13 0.00 0.00 0.00 -26,911.80 12.27 12.39 0.14
7/5/2020 0.00 541.00 541.00 0.00 0.00 0.00 0.00 1,073.06 1,073.06 0.00 0.00 0.00 -25,838.74 12.29 12.41 1.09
7/6/2020 0.00 292.00 292.00 0.00 0.00 0.00 0.00 579.17 579.17 0.00 0.00 0.00 -25,259.56 12.32 12.56 2.61
7/7/2020 0.00 0.00 0.00 0.00 0.00 0.00 0.00 0.00 0.00 0.00 0.00 0.00 -25,259.56 12.37 12.61 0.33
7/8/2020 0.00 0.00 0.00 0.00 0.00 0.00 0.00 0.00 0.00 0.00 0.00 0.00 -25,259.56 12.43 12.66 0.00
7/9/2020 0.00 -398.00 0.00 398.00 0.00 0.00 0.00 -789.42 0.00 789.42 0.00 0.00 -26,048.99 12.45 12.67 0.47
7/10/2020 0.00 -390.00 0.00 390.00 0.00 0.00 0.00 -773.56 0.00 773.56 0.00 0.00 -26,822.54 12.45 12.69 0.03
7/11/2020 0.00 -241.00 0.00 241.00 0.00 0.00 0.00 -478.02 0.00 478.02 0.00 0.00 -27,300.56 12.50 12.74 0.00
7/12/2020 0.00 -84.00 0.00 84.00 0.00 0.00 0.00 -166.61 0.00 166.61 0.00 0.00 -27,467.17 12.54 12.78 0.00
7/13/2020 0.00 -52.00 0.00 52.00 0.00 0.00 0.00 -103.14 0.00 103.14 0.00 0.00 -27,570.31 12.55 12.75 0.00
7/14/2020 0.00 -276.00 0.00 276.00 0.00 0.00 0.00 -547.44 0.00 547.44 0.00 0.00 -28,117.75 12.56 12.68 0.00
7/15/2020 0.00 -176.00 0.00 176.00 0.00 0.00 0.00 -349.09 0.00 349.09 0.00 0.00 -28,466.84 12.56 12.68 0.20
7/16/2020 111.00 0.00 0.00 0.00 111.00 0.00 220.17 0.00 0.00 0.00 220.17 0.00 -28,466.84 12.61 12.58 0.01
7/17/2020 112.00 0.00 0.00 0.00 112.00 0.00 222.15 0.00 0.00 0.00 222.15 0.00 -28,466.84 12.64 12.58 0.30
7/18/2020 0.00 0.00 0.00 0.00 0.00 0.00 0.00 0.00 0.00 0.00 0.00 0.00 -28,466.84 12.66 12.63 0.23
7/19/2020 0.00 0.00 0.00 0.00 0.00 0.00 0.00 0.00 0.00 0.00 0.00 0.00 -28,466.84 12.69 12.68 0.16
7/20/2020 0.00 0.00 0.00 0.00 0.00 0.00 0.00 0.00 0.00 0.00 0.00 0.00 -28,466.84 12.74 12.69 0.11
7/21/2020 0.00 0.00 0.00 0.00 0.00 0.00 0.00 0.00 0.00 0.00 0.00 0.00 -28,466.84 12.77 12.71 0.03
7/22/2020 0.00 1,754.00 1,754.00 0.00 0.00 0.00 0.00 3,479.02 3,479.02 0.00 0.00 0.00 -24,987.83 12.81 12.82 0.71
7/23/2020 0.00 2,325.00 2,325.00 0.00 0.00 0.00 0.00 4,611.58 4,611.58 0.00 0.00 0.00 -20,376.25 12.86 12.86 0.08
7/24/2020 0.00 2,232.00 2,232.00 0.00 0.00 0.00 0.00 4,427.12 4,427.12 0.00 0.00 0.00 -15,949.13 12.88 12.79 0.03
7/25/2020 0.00 1,971.00 1,971.00 0.00 0.00 0.00 0.00 3,909.43 3,909.43 0.00 0.00 0.00 -12,039.70 12.91 12.82 0.01
7/26/2020 0.00 1,723.00 1,723.00 0.00 0.00 0.00 0.00 3,417.53 3,417.53 0.00 0.00 0.00 -8,622.17 12.94 13.06 1.73
7/27/2020 0.00 1,940.00 1,940.00 0.00 0.00 0.00 0.00 3,847.94 3,847.94 0.00 0.00 0.00 -4,774.23 13.03 13.21 1.06
7/28/2020 0.00 2,102.00 2,102.00 0.00 0.00 0.00 0.00 4,169.27 4,169.27 0.00 0.00 0.00 -604.96 13.13 13.29 0.00
7/29/2020 0.00 2,510.00 2,510.00 0.00 0.00 0.00 0.00 4,978.52 4,978.52 0.00 0.00 0.00 4,373.56 13.17 13.25 0.00
7/30/2020 0.00 2,337.00 2,337.00 0.00 0.00 0.00 0.00 4,635.38 4,635.38 0.00 0.00 0.00 9,008.95 13.22 13.24 0.00
7/31/2020 26.00 1,449.00 1,449.00 0.00 0.00 26.00 51.57 2,874.06 2,874.06 0.00 0.00 51.57 11,883.00 13.25 13.29 0.00
8/1/2020 303.00 0.00 0.00 0.00 303.00 0.00 600.99 0.00 0.00 0.00 600.99 0.00 11,883.00 13.27 13.20 1.54
8/2/2020 373.00 0.00 0.00 0.00 373.00 0.00 739.84 0.00 0.00 0.00 739.84 0.00 11,883.00 13.27 13.20 0.06
8/3/2020 52.00 0.00 0.00 0.00 52.00 0.00 103.14 0.00 0.00 0.00 103.14 0.00 11,883.00 13.34 13.34 0.00
8/4/2020 0.00 0.00 0.00 0.00 0.00 0.00 0.00 0.00 0.00 0.00 0.00 0.00 11,883.00 13.37 13.55 0.10
8/5/2020 0.00 0.00 0.00 0.00 0.00 0.00 0.00 0.00 0.00 0.00 0.00 0.00 11,883.00 13.42 13.94 1.21
8/6/2020 0.00 480.00 480.00 0.00 0.00 0.00 0.00 952.07 952.07 0.00 0.00 0.00 12,835.07 13.47 14.06 0.50
8/7/2020 0.00 2,783.00 2,783.00 0.00 0.00 0.00 0.00 5,520.01 5,520.01 0.00 0.00 0.00 18,355.08 13.52 13.69 0.00
8/8/2020 0.00 0.00 0.00 0.00 0.00 0.00 0.00 0.00 0.00 0.00 0.00 0.00 18,355.08 13.62 13.67 0.00
8/9/2020 0.00 0.00 0.00 0.00 0.00 0.00 0.00 0.00 0.00 0.00 0.00 0.00 18,355.08 13.68 13.67 0.24
8/10/2020 0.00 0.00 0.00 0.00 0.00 0.00 0.00 0.00 0.00 0.00 0.00 0.00 18,355.08 13.71 13.69 0.00
8/11/2020 0.00 3,159.00 3,159.00 0.00 0.00 0.00 0.00 6,265.80 6,265.80 0.00 0.00 0.00 24,620.88 13.75 13.75 0.00
8/12/2020 0.00 3,300.00 3,300.00 0.00 0.00 0.00 0.00 6,545.47 6,545.47 0.00 0.00 0.00 31,166.35 13.78 13.77 0.00
8/13/2020 0.00 3,380.00 3,380.00 0.00 0.00 0.00 0.00 6,704.15 6,704.15 0.00 0.00 0.00 37,870.50 13.80 13.74 0.34
8/14/2020 0.00 2,049.00 2,049.00 0.00 0.00 0.00 0.00 4,064.14 4,064.14 0.00 0.00 0.00 41,934.64 13.82 13.78 0.00
8/15/2020 0.00 -220.00 0.00 220.00 0.00 0.00 0.00 -436.36 0.00 436.36 0.00 0.00 41,498.28 13.82 13.88 0.00
8/16/2020 0.00 -1,584.00 0.00 1,584.00 0.00 0.00 0.00 -3,141.83 0.00 3,141.83 0.00 0.00 38,356.45 13.83 13.90 0.00
8/17/2020 0.00 -2,034.00 0.00 2,034.00 0.00 0.00 0.00 -4,034.39 0.00 4,034.39 0.00 0.00 34,322.06 13.86 13.92 0.05
8/18/2020 0.00 -1,999.00 0.00 1,999.00 0.00 0.00 0.00 -3,964.97 0.00 3,964.97 0.00 0.00 30,357.09 13.89 13.93 0.07
8/19/2020 0.00 -1,614.00 0.00 1,614.00 0.00 0.00 0.00 -3,201.33 0.00 3,201.33 0.00 0.00 27,155.76 13.94 14.02 0.02
8/20/2020 0.00 -111.00 0.00 111.00 0.00 0.00 0.00 -220.17 0.00 220.17 0.00 0.00 26,935.60 13.98 14.02 0.15
8/21/2020 361.00 224.00 224.00 0.00 137.00 224.00 716.03 444.30 444.30 0.00 271.74 444.30 27,379.90 14.05 13.93 0.12
8/22/2020 597.00 0.00 0.00 0.00 597.00 0.00 1,184.13 0.00 0.00 0.00 1,184.13 0.00 27,379.90 14.10 13.83 0.02
8/23/2020 219.00 0.00 0.00 0.00 219.00 0.00 434.38 0.00 0.00 0.00 434.38 0.00 27,379.90 14.12 13.75 0.20
8/24/2020 419.00 0.00 0.00 0.00 419.00 0.00 831.08 0.00 0.00 0.00 831.08 0.00 27,379.90 14.14 13.69 0.00
8/25/2020 276.00 0.00 0.00 0.00 276.00 0.00 547.44 0.00 0.00 0.00 547.44 0.00 27,379.90 14.14 13.60 0.00
8/26/2020 0.00 0.00 0.00 0.00 0.00 0.00 0.00 0.00 0.00 0.00 0.00 0.00 27,379.90 14.16 13.87 0.22
8/27/2020 47.00 0.00 0.00 0.00 47.00 0.00 93.22 0.00 0.00 0.00 93.22 0.00 27,379.90 14.16 14.12 0.00
8/28/2020 353.00 0.00 0.00 0.00 353.00 0.00 700.17 0.00 0.00 0.00 700.17 0.00 27,379.90 14.18 13.97 0.00
8/29/2020 135.00 0.00 0.00 0.00 135.00 0.00 267.77 0.00 0.00 0.00 267.77 0.00 27,379.90 14.21 13.97 0.07
8/30/2020 92.00 0.00 0.00 0.00 92.00 0.00 182.48 0.00 0.00 0.00 182.48 0.00 27,379.90 14.29 13.99 0.08
8/31/2020 130.00 0.00 0.00 0.00 130.00 0.00 257.85 0.00 0.00 0.00 257.85 0.00 27,379.90 14.33 14.03 0.01
9/1/2020 52.00 0.00 0.00 0.00 52.00 0.00 103.14 0.00 0.00 0.00 103.14 0.00 27,379.90 14.37 14.05 0.00
9/2/2020 4.70 0.00 0.00 0.00 4.70 0.00 9.32 0.00 0.00 0.00 9.32 0.00 27,379.90 14.38 13.83 0.00
9/3/2020 0.00 0.00 0.00 0.00 0.00 0.00 0.00 0.00 0.00 0.00 0.00 0.00 27,379.90 14.39 13.78 0.00
9/4/2020 0.00 0.00 0.00 0.00 0.00 0.00 0.00 0.00 0.00 0.00 0.00 0.00 27,379.90 14.39 13.69 0.00
9/5/2020 0.00 0.00 0.00 0.00 0.00 0.00 0.00 0.00 0.00 0.00 0.00 0.00 27,379.90 14.42 13.65 0.00
9/6/2020 0.00 0.00 0.00 0.00 0.00 0.00 0.00 0.00 0.00 0.00 0.00 0.00 27,379.90 14.49 13.80 0.91
9/7/2020 13.00 0.00 0.00 0.00 13.00 0.00 25.79 0.00 0.00 0.00 25.79 0.00 27,379.90 14.60 14.19 0.04
9/8/2020 365.00 0.00 0.00 0.00 365.00 0.00 723.97 0.00 0.00 0.00 723.97 0.00 27,379.90 14.66 14.58 2.44
9/9/2020 631.00 0.00 0.00 0.00 631.00 0.00 1,251.57 0.00 0.00 0.00 1,251.57 0.00 27,379.90 14.68 14.38 0.01
9/10/2020 563.00 0.00 0.00 0.00 563.00 0.00 1,116.70 0.00 0.00 0.00 1,116.70 0.00 27,379.90 14.74 14.12 0.01
9/11/2020 333.00 0.00 0.00 0.00 333.00 0.00 660.50 0.00 0.00 0.00 660.50 0.00 27,379.90 14.79 14.07 0.37
9/12/2020 308.00 0.00 0.00 0.00 308.00 0.00 610.91 0.00 0.00 0.00 610.91 0.00 27,379.90 14.84 14.16 1.65
9/13/2020 853.00 0.00 0.00 0.00 853.00 0.00 1,691.90 0.00 0.00 0.00 1,691.90 0.00 27,379.90 14.89 14.39 0.06
9/14/2020 853.00 0.00 0.00 0.00 853.00 0.00 1,691.90 0.00 0.00 0.00 1,691.90 0.00 27,379.90 14.94 14.23 0.00
9/15/2020 516.00 0.00 0.00 0.00 516.00 0.00 1,023.47 0.00 0.00 0.00 1,023.47 0.00 27,379.90 14.99 14.12 0.00
9/16/2020 360.00 0.00 0.00 0.00 360.00 0.00 714.05 0.00 0.00 0.00 714.05 0.00 27,379.90 15.04 14.13 0.00
9/17/2020 335.00 0.00 0.00 0.00 335.00 0.00 664.46 0.00 0.00 0.00 664.46 0.00 27,379.90 15.11 14.33 0.00
9/18/2020 135.00 0.00 0.00 0.00 135.00 0.00 267.77 0.00 0.00 0.00 267.77 0.00 27,379.90 15.14 14.24 0.00
9/19/2020 0.00 0.00 0.00 0.00 0.00 0.00 0.00 0.00 0.00 0.00 0.00 0.00 27,379.90 15.16 14.13 0.01
9/20/2020 0.00 0.00 0.00 0.00 0.00 0.00 0.00 0.00 0.00 0.00 0.00 0.00 27,379.90 15.17 14.02 0.07
9/21/2020 0.00 0.00 0.00 0.00 0.00 0.00 0.00 0.00 0.00 0.00 0.00 0.00 27,379.90 15.18 14.54 0.15
9/22/2020 340.00 0.00 0.00 0.00 340.00 0.00 674.38 0.00 0.00 0.00 674.38 0.00 27,379.90 15.21 14.41 0.00
9/23/2020 358.00 0.00 0.00 0.00 358.00 0.00 710.08 0.00 0.00 0.00 710.08 0.00 27,379.90 15.23 14.08 0.00
9/24/2020 120.00 0.00 0.00 0.00 120.00 0.00 238.02 0.00 0.00 0.00 238.02 0.00 27,379.90 15.26 14.13 0.55
9/25/2020 292.00 0.00 0.00 0.00 292.00 0.00 579.17 0.00 0.00 0.00 579.17 0.00 27,379.90 15.32 14.32 0.01
9/26/2020 402.00 0.00 0.00 0.00 402.00 0.00 797.36 0.00 0.00 0.00 797.36 0.00 27,379.90 15.37 14.10 0.00
9/27/2020 138.00 0.00 0.00 0.00 138.00 0.00 273.72 0.00 0.00 0.00 273.72 0.00 27,379.90 15.43 14.15 0.00
9/28/2020 510.00 0.00 0.00 0.00 510.00 0.00 1,011.57 0.00 0.00 0.00 1,011.57 0.00 27,379.90 15.47 14.24 3.06
9/29/2020 530.00 0.00 0.00 0.00 530.00 0.00 1,051.24 0.00 0.00 0.00 1,051.24 0.00 27,379.90 15.52 14.27 0.00
9/30/2020 217.00 0.00 0.00 0.00 217.00 0.00 430.41 0.00 0.00 0.00 430.41 0.00 27,379.90 15.52 14.17 0.01
10/1/2020 304.00 0.00 0.00 0.00 304.00 0.00 602.98 0.00 0.00 0.00 602.98 0.00 27,379.90 15.55 14.27 0.23
10/2/2020 389.00 0.00 0.00 0.00 389.00 0.00 771.57 0.00 0.00 0.00 771.57 0.00 27,379.90 15.57 14.27 0.00
10/3/2020 379.00 0.00 0.00 0.00 379.00 0.00 751.74 0.00 0.00 0.00 751.74 0.00 27,379.90 15.63 14.24 0.68
10/4/2020 380.00 0.00 0.00 0.00 380.00 0.00 753.72 0.00 0.00 0.00 753.72 0.00 27,379.90 15.78 14.34 0.02
10/5/2020 333.00 0.00 0.00 0.00 333.00 0.00 660.50 0.00 0.00 0.00 660.50 0.00 27,379.90 15.85 14.54 0.48
10/6/2020 491.00 0.00 0.00 0.00 491.00 0.00 973.89 0.00 0.00 0.00 973.89 0.00 27,379.90 15.91 14.70 0.60
10/7/2020 447.00 0.00 0.00 0.00 447.00 0.00 886.61 0.00 0.00 0.00 886.61 0.00 27,379.90 15.99 14.66 0.01
10/8/2020 524.00 0.00 0.00 0.00 524.00 0.00 1,039.34 0.00 0.00 0.00 1,039.34 0.00 27,379.90 16.02 14.64 0.00
10/9/2020 592.00 0.00 0.00 0.00 592.00 0.00 1,174.22 0.00 0.00 0.00 1,174.22 0.00 27,379.90 16.05 14.20 0.00
10/10/2020 358.00 0.00 0.00 0.00 358.00 0.00 710.08 0.00 0.00 0.00 710.08 0.00 27,379.90 16.09 14.32 0.64
10/11/2020 382.00 0.00 0.00 0.00 382.00 0.00 757.69 0.00 0.00 0.00 757.69 0.00 27,379.90 16.14 14.18 0.01
10/12/2020 326.00 0.00 0.00 0.00 326.00 0.00 646.61 0.00 0.00 0.00 646.61 0.00 27,379.90 16.18 14.08 0.00
10/13/2020 240.00 0.00 0.00 0.00 240.00 0.00 476.03 0.00 0.00 0.00 476.03 0.00 27,379.90 16.20 14.14 0.00
10/14/2020 314.00 128.00 128.00 0.00 186.00 128.00 622.81 253.88 253.88 0.00 368.93 253.88 27,633.78 16.21 14.07 0.00
10/15/2020 222.00 123.00 123.00 0.00 99.00 123.00 440.33 243.97 243.97 0.00 196.36 243.97 27,877.75 16.21 14.26 0.00
10/16/2020 269.00 247.00 247.00 0.00 22.00 247.00 533.55 489.92 489.92 0.00 43.64 489.92 28,367.67 16.22 14.21 0.03
10/17/2020 206.00 301.00 301.00 0.00 0.00 206.00 408.60 597.03 597.03 0.00 0.00 408.60 28,964.69 16.21 14.04 0.00
10/18/2020 164.00 328.00 328.00 0.00 0.00 164.00 325.29 650.58 650.58 0.00 0.00 325.29 29,615.27 16.19 14.18 0.62
10/19/2020 856.00 460.00 460.00 0.00 396.00 460.00 1,697.86 912.40 912.40 0.00 785.46 912.40 30,527.67 16.24 14.52 1.95
10/20/2020 1,226.00 682.00 682.00 0.00 544.00 682.00 2,431.74 1,352.73 1,352.73 0.00 1,079.01 1,352.73 31,880.40 16.27 13.74 0.39
10/21/2020 1,061.00 0.00 0.00 0.00 1,061.00 0.00 2,104.47 0.00 0.00 0.00 2,104.47 0.00 31,880.40 16.28 13.74 0.43
10/22/2020 1,381.00 324.00 324.00 0.00 1,057.00 324.00 2,739.18 642.65 642.65 0.00 2,096.53 642.65 32,523.05 16.32 14.31 1.62
10/23/2020 1,358.00 0.00 0.00 0.00 1,358.00 0.00 2,693.56 0.00 0.00 0.00 2,693.56 0.00 32,523.05 16.35 14.58 0.01
10/24/2020 1,729.00 1,166.00 1,166.00 0.00 563.00 1,166.00 3,429.43 2,312.73 2,312.73 0.00 1,116.70 2,312.73 34,835.78 16.35 14.04 0.09
10/25/2020 1,909.00 1,643.00 1,643.00 0.00 266.00 1,643.00 3,786.45 3,258.85 3,258.85 0.00 527.60 3,258.85 38,094.63 16.36 14.04 1.12
10/26/2020 2,411.00 1,771.00 1,771.00 0.00 640.00 1,771.00 4,782.16 3,512.74 3,512.74 0.00 1,269.42 3,512.74 41,607.37 16.37 14.13 0.12
10/27/2020 2,180.00 1,438.00 1,438.00 0.00 742.00 1,438.00 4,323.98 2,852.24 2,852.24 0.00 1,471.74 2,852.24 44,459.61 16.37 14.06 0.00
10/28/2020 2,020.00 1,322.00 1,322.00 0.00 698.00 1,322.00 4,006.62 2,622.15 2,622.15 0.00 1,384.47 2,622.15 47,081.76 16.35 14.21 0.00
10/29/2020 2,015.00 1,512.00 1,512.00 0.00 503.00 1,512.00 3,996.70 2,999.02 2,999.02 0.00 997.69 2,999.02 50,080.78 16.33 14.16 0.00
10/30/2020 1,484.00 1,556.00 1,556.00 0.00 0.00 1,484.00 2,943.48 3,086.29 3,086.29 0.00 0.00 2,943.48 53,167.06 16.30 14.41 0.00
10/31/2020 1,474.00 1,019.00 1,019.00 0.00 455.00 1,019.00 2,923.64 2,021.16 2,021.16 0.00 902.48 2,021.16 55,188.23 16.27 14.59 0.00
11/1/2020 1,805.00 1,740.00 1,740.00 0.00 65.00 1,740.00 3,580.17 3,451.25 3,451.25 0.00 128.93 3,451.25 58,639.47 16.26 14.13 0.22
11/2/2020 1,240.00 910.00 910.00 0.00 330.00 910.00 2,459.51 1,804.96 1,804.96 0.00 654.55 1,804.96 60,444.44 16.20 14.40 0.01
11/3/2020 918.00 704.00 704.00 0.00 214.00 704.00 1,820.83 1,396.37 1,396.37 0.00 424.46 1,396.37 61,840.80 16.16 14.37 0.00
11/4/2020 1,044.00 892.00 892.00 0.00 152.00 892.00 2,070.75 1,769.26 1,769.26 0.00 301.49 1,769.26 63,610.06 16.13 14.24 0.00
11/5/2020 1,192.00 1,265.00 1,265.00 0.00 0.00 1,192.00 2,364.30 2,509.10 2,509.10 0.00 0.00 2,364.30 66,119.16 16.10 14.14 1.05
11/6/2020 1,399.00 1,683.00 1,683.00 0.00 0.00 1,399.00 2,774.88 3,338.19 3,338.19 0.00 0.00 2,774.88 69,457.35 16.09 14.21 0.01
11/7/2020 1,647.00 1,692.00 1,692.00 0.00 0.00 1,647.00 3,266.78 3,356.04 3,356.04 0.00 0.00 3,266.78 72,813.39 16.07 14.14 0.52
11/8/2020 1,747.00 582.00 582.00 0.00 1,165.00 582.00 3,465.13 1,154.38 1,154.38 0.00 2,310.75 1,154.38 73,967.77 16.11 14.31 1.93
11/9/2020 2,154.00 0.00 0.00 0.00 2,154.00 0.00 4,272.41 0.00 0.00 0.00 4,272.41 0.00 73,967.77 16.25 14.93 1.19
11/10/2020 3,774.00 0.00 0.00 0.00 3,774.00 0.00 7,485.64 0.00 0.00 0.00 7,485.64 0.00 73,967.77 16.32 14.98 1.32
11/11/2020 3,296.00 0.00 0.00 0.00 3,296.00 0.00 6,537.54 0.00 0.00 0.00 6,537.54 0.00 73,967.77 16.40 14.65 0.13
11/12/2020 2,264.00 588.00 588.00 0.00 1,676.00 588.00 4,490.59 1,166.28 1,166.28 0.00 3,324.31 1,166.28 75,134.06 16.44 14.34 0.02
11/13/2020 3,429.00 1,464.00 1,464.00 0.00 1,965.00 1,464.00 6,801.34 2,903.81 2,903.81 0.00 3,897.53 2,903.81 78,037.87 16.45 14.24 0.00
11/14/2020 3,025.00 1,600.00 1,600.00 0.00 1,425.00 1,600.00 6,000.01 3,173.56 3,173.56 0.00 2,826.45 3,173.56 81,211.43 16.44 13.85 0.01
11/15/2020 2,412.00 1,632.00 1,632.00 0.00 780.00 1,632.00 4,784.14 3,237.03 3,237.03 0.00 1,547.11 3,237.03 84,448.46 16.44 13.81 0.03
11/16/2020 1,788.00 1,603.00 1,603.00 0.00 185.00 1,603.00 3,546.45 3,179.51 3,179.51 0.00 366.94 3,179.51 87,627.97 16.42 14.15 0.01
11/17/2020 2,244.00 1,440.00 1,440.00 0.00 804.00 1,440.00 4,450.92 2,856.20 2,856.20 0.00 1,594.71 2,856.20 90,484.17 16.36 14.29 0.00
11/18/2020 2,128.00 1,500.00 1,500.00 0.00 628.00 1,500.00 4,220.84 2,975.21 2,975.21 0.00 1,245.62 2,975.21 93,459.39 16.33 14.12 0.00
11/19/2020 2,108.00 1,624.00 1,624.00 0.00 484.00 1,624.00 4,181.17 3,221.16 3,221.16 0.00 960.00 3,221.16 96,680.55 16.30 14.12 0.00
11/20/2020 2,125.00 1,666.00 1,666.00 0.00 459.00 1,666.00 4,214.89 3,304.47 3,304.47 0.00 910.42 3,304.47 99,985.02 16.28 14.14 0.11
11/21/2020 2,111.00 1,621.00 1,621.00 0.00 490.00 1,621.00 4,187.12 3,215.21 3,215.21 0.00 971.90 3,215.21 103,200.24 16.27 14.17 0.35
11/22/2020 2,104.00 1,580.00 1,580.00 0.00 524.00 1,580.00 4,173.23 3,133.89 3,133.89 0.00 1,039.34 3,133.89 106,334.13 16.26 14.25 0.01
11/23/2020 2,099.00 1,580.00 1,580.00 0.00 519.00 1,580.00 4,163.32 3,133.89 3,133.89 0.00 1,029.42 3,133.89 109,468.02 16.23 14.19 0.01
11/24/2020 2,017.00 1,615.00 1,615.00 0.00 402.00 1,615.00 4,000.67 3,203.31 3,203.31 0.00 797.36 3,203.31 112,671.33 16.21 14.04 0.00
11/25/2020 1,938.00 1,598.00 1,598.00 0.00 340.00 1,598.00 3,843.98 3,169.59 3,169.59 0.00 674.38 3,169.59 115,840.93 16.19 14.12 0.00
11/26/2020 1,941.00 1,600.00 1,600.00 0.00 341.00 1,600.00 3,849.93 3,173.56 3,173.56 0.00 676.37 3,173.56 119,014.49 16.18 14.18 0.00
11/27/2020 1,940.00 1,597.00 1,597.00 0.00 343.00 1,597.00 3,847.94 3,167.61 3,167.61 0.00 680.33 3,167.61 122,182.10 16.16 14.17 0.00
11/28/2020 1,939.00 1,611.00 1,611.00 0.00 328.00 1,611.00 3,845.96 3,195.38 3,195.38 0.00 650.58 3,195.38 125,377.48 16.15 14.14 0.00
11/29/2020 1,934.00 1,632.00 1,632.00 0.00 302.00 1,632.00 3,836.04 3,237.03 3,237.03 0.00 599.01 3,237.03 128,614.51 16.13 14.06 0.00
11/30/2020 1,936.00 1,649.00 1,649.00 0.00 287.00 1,649.00 3,840.01 3,270.75 3,270.75 0.00 569.26 3,270.75 131,885.26 16.11 14.11 0.60
12/1/2020 1,936.00 1,600.00 1,600.00 0.00 336.00 1,600.00 3,840.01 3,173.56 3,173.56 0.00 666.45 3,173.56 135,058.82 16.06 14.10 0.00
12/2/2020 1,926.00 1,600.00 1,600.00 0.00 326.00 1,600.00 3,820.17 3,173.56 3,173.56 0.00 646.61 3,173.56 138,232.38 16.01 13.95 0.00
12/3/2020 1,911.00 1,661.00 1,661.00 0.00 250.00 1,661.00 3,790.42 3,294.55 3,294.55 0.00 495.87 3,294.55 141,526.94 15.99 13.90 0.00
12/4/2020 1,904.00 1,690.00 1,690.00 0.00 214.00 1,690.00 3,776.54 3,352.07 3,352.07 0.00 424.46 3,352.07 144,879.01 15.98 14.00 0.00
12/5/2020 567.00 512.00 512.00 0.00 55.00 512.00 1,124.63 1,015.54 1,015.54 0.00 109.09 1,015.54 145,894.55 15.96 14.33 0.00
12/6/2020 160.00 0.00 0.00 0.00 160.00 0.00 317.36 0.00 0.00 0.00 317.36 0.00 145,894.55 15.94 14.53 0.00
12/7/2020 760.00 0.00 0.00 0.00 760.00 0.00 1,507.44 0.00 0.00 0.00 1,507.44 0.00 145,894.55 16.04 14.59 1.90
12/8/2020 420.00 0.00 0.00 0.00 420.00 0.00 833.06 0.00 0.00 0.00 833.06 0.00 145,894.55 16.03 14.27 0.00
12/9/2020 534.00 0.00 0.00 0.00 534.00 0.00 1,059.18 0.00 0.00 0.00 1,059.18 0.00 145,894.55 16.02 14.39 0.00
12/10/2020 998.00 1,192.00 1,192.00 0.00 0.00 998.00 1,979.51 2,364.30 2,364.30 0.00 0.00 1,979.51 148,258.85 16.01 13.95 0.00
12/11/2020 1,396.00 1,945.00 1,945.00 0.00 0.00 1,396.00 2,768.93 3,857.86 3,857.86 0.00 0.00 2,768.93 152,116.71 15.99 13.87 0.00
12/12/2020 1,401.00 1,907.00 1,907.00 0.00 0.00 1,401.00 2,778.85 3,782.49 3,782.49 0.00 0.00 2,778.85 155,899.20 15.98 14.02 0.71
12/13/2020 1,404.00 1,757.00 1,757.00 0.00 0.00 1,404.00 2,784.80 3,484.97 3,484.97 0.00 0.00 2,784.80 159,384.17 15.98 14.06 0.01
12/14/2020 1,407.00 1,803.00 1,803.00 0.00 0.00 1,407.00 2,790.75 3,576.21 3,576.21 0.00 0.00 2,790.75 162,960.37 15.97 14.12 0.00
12/15/2020 1,407.00 1,788.00 1,788.00 0.00 0.00 1,407.00 2,790.75 3,546.45 3,546.45 0.00 0.00 2,790.75 166,506.83 15.96 14.10 0.00
12/16/2020 1,401.00 1,962.00 1,962.00 0.00 0.00 1,401.00 2,778.85 3,891.58 3,891.58 0.00 0.00 2,778.85 170,398.41 15.95 14.04 0.00
12/17/2020 568.00 606.00 606.00 0.00 0.00 568.00 1,126.61 1,201.99 1,201.99 0.00 0.00 1,126.61 171,600.39 15.94 14.48 0.00
12/18/2020 206.00 0.00 0.00 0.00 206.00 0.00 408.60 0.00 0.00 0.00 408.60 0.00 171,600.39 15.90 14.31 0.00
12/19/2020 0.00 0.00 0.00 0.00 0.00 0.00 0.00 0.00 0.00 0.00 0.00 0.00 171,600.39 15.91 14.27 0.00
12/20/2020 0.00 0.00 0.00 0.00 0.00 0.00 0.00 0.00 0.00 0.00 0.00 0.00 171,600.39 15.91 14.40 0.00
12/21/2020 299.00 0.00 0.00 0.00 299.00 0.00 593.06 0.00 0.00 0.00 593.06 0.00 171,600.39 15.93 14.51 0.19
12/22/2020 1,238.00 1,272.00 1,272.00 0.00 0.00 1,238.00 2,455.54 2,522.98 2,522.98 0.00 0.00 2,455.54 174,123.37 15.91 13.92 0.00
12/23/2020 1,380.00 2,299.00 2,299.00 0.00 0.00 1,380.00 2,737.20 4,560.01 4,560.01 0.00 0.00 2,737.20 178,683.39 15.89 13.61 0.00
12/24/2020 1,407.00 2,256.00 2,256.00 0.00 0.00 1,407.00 2,790.75 4,474.72 4,474.72 0.00 0.00 2,790.75 183,158.11 15.89 14.15 0.00
12/25/2020 1,410.00 2,100.00 2,100.00 0.00 0.00 1,410.00 2,796.70 4,165.30 4,165.30 0.00 0.00 2,796.70 187,323.41 15.85 14.17 0.01
12/26/2020 1,401.00 2,164.00 2,164.00 0.00 0.00 1,401.00 2,778.85 4,292.24 4,292.24 0.00 0.00 2,778.85 191,615.65 15.83 14.04 0.00
12/27/2020 1,401.00 2,144.00 2,144.00 0.00 0.00 1,401.00 2,778.85 4,252.57 4,252.57 0.00 0.00 2,778.85 195,868.22 15.82 14.04 0.08
12/28/2020 1,395.00 2,112.00 2,112.00 0.00 0.00 1,395.00 2,766.95 4,189.10 4,189.10 0.00 0.00 2,766.95 200,057.32 15.81 14.09 0.10
12/29/2020 518.00 644.00 644.00 0.00 0.00 518.00 1,027.44 1,277.36 1,277.36 0.00 0.00 1,027.44 201,334.68 15.80 14.23 0.00
12/30/2020 44.00 0.00 0.00 0.00 44.00 0.00 87.27 0.00 0.00 0.00 87.27 0.00 201,334.68 15.81 14.41 0.00
12/31/2020 136.00 0.00 0.00 0.00 136.00 0.00 269.75 0.00 0.00 0.00 269.75 0.00 201,334.68 15.81 14.41 0.00
Totals 131,891.70 101,506.00 177,293.00 75,787.00 52,491.70 79,400.00 261,603.97 201,334.68 351,656.34 150,321.67 104,116.01 157,487.96        
* Red = Missing data (flows will be set to zero, stages will be set to the stage on the previous day)